sensor_id;sensor_type;location;lat;lon;timestamp;pressure;altitude;pressure_sealevel;temperature;humidity
35848;BME280;22332;51.954;20.118;2023-12-20T00:00:12;99374.29;;;7.48;82.69
35848;BME280;22332;51.954;20.118;2023-12-20T00:03:38;99369.69;;;7.48;82.75
35848;BME280;22332;51.954;20.118;2023-12-20T00:06:44;99367.71;;;7.51;83.01
35848;BME280;22332;51.954;20.118;2023-12-20T00:09:49;99369.00;;;7.50;82.91
35848;BME280;22332;51.954;20.118;2023-12-20T00:12:55;99362.91;;;7.49;82.87
35848;BME280;22332;51.954;20.118;2023-12-20T00:16:01;99365.06;;;7.47;83.05
35848;BME280;22332;51.954;20.118;2023-12-20T00:19:06;99363.80;;;7.45;82.93
35848;BME280;22332;51.954;20.118;2023-12-20T00:22:12;99358.52;;;7.45;83.12
35848;BME280;22332;51.954;20.118;2023-12-20T00:25:18;99354.52;;;7.48;83.13
35848;BME280;22332;51.954;20.118;2023-12-20T00:28:24;99355.00;;;7.50;83.14
35848;BME280;22332;51.954;20.118;2023-12-20T00:31:29;99357.84;;;7.50;83.26
35848;BME280;22332;51.954;20.118;2023-12-20T00:34:35;99354.80;;;7.51;83.17
35848;BME280;22332;51.954;20.118;2023-12-20T00:37:41;99355.08;;;7.49;83.31
35848;BME280;22332;51.954;20.118;2023-12-20T00:40:47;99351.77;;;7.45;83.26
35848;BME280;22332;51.954;20.118;2023-12-20T00:43:54;99344.30;;;7.45;83.39
35848;BME280;22332;51.954;20.118;2023-12-20T00:47:00;99342.45;;;7.46;83.59
35848;BME280;22332;51.954;20.118;2023-12-20T00:50:08;99342.21;;;7.49;83.41
35848;BME280;22332;51.954;20.118;2023-12-20T00:53:14;99345.38;;;7.47;83.81
35848;BME280;22332;51.954;20.118;2023-12-20T00:56:20;99338.40;;;7.44;83.86
35848;BME280;22332;51.954;20.118;2023-12-20T00:59:25;99339.49;;;7.40;83.86
35848;BME280;22332;51.954;20.118;2023-12-20T01:02:31;99333.78;;;7.38;83.87
35848;BME280;22332;51.954;20.118;2023-12-20T01:05:39;99339.00;;;7.39;84.02
35848;BME280;22332;51.954;20.118;2023-12-20T01:08:45;99334.16;;;7.41;83.93
35848;BME280;22332;51.954;20.118;2023-12-20T01:11:50;99330.96;;;7.43;83.86
35848;BME280;22332;51.954;20.118;2023-12-20T01:14:56;99326.92;;;7.44;84.22
35848;BME280;22332;51.954;20.118;2023-12-20T01:18:03;99324.58;;;7.46;84.19
35848;BME280;22332;51.954;20.118;2023-12-20T01:21:09;99323.55;;;7.42;84.27
35848;BME280;22332;51.954;20.118;2023-12-20T01:24:14;99317.16;;;7.39;84.37
35848;BME280;22332;51.954;20.118;2023-12-20T01:27:20;99322.87;;;7.39;84.52
35848;BME280;22332;51.954;20.118;2023-12-20T01:30:26;99327.22;;;7.43;84.38
35848;BME280;22332;51.954;20.118;2023-12-20T01:33:31;99324.38;;;7.45;84.74
35848;BME280;22332;51.954;20.118;2023-12-20T01:36:37;99315.86;;;7.43;84.76
35848;BME280;22332;51.954;20.118;2023-12-20T01:39:44;99313.42;;;7.41;84.91
35848;BME280;22332;51.954;20.118;2023-12-20T01:42:59;99307.25;;;7.39;84.73
35848;BME280;22332;51.954;20.118;2023-12-20T01:46:06;99306.11;;;7.38;84.83
35848;BME280;22332;51.954;20.118;2023-12-20T01:49:13;99298.08;;;7.37;84.99
35848;BME280;22332;51.954;20.118;2023-12-20T01:52:20;99294.25;;;7.40;85.09
35848;BME280;22332;51.954;20.118;2023-12-20T01:55:26;99290.77;;;7.43;85.06
35848;BME280;22332;51.954;20.118;2023-12-20T01:58:33;99291.02;;;7.42;84.97
35848;BME280;22332;51.954;20.118;2023-12-20T02:01:39;99279.81;;;7.41;85.08
35848;BME280;22332;51.954;20.118;2023-12-20T02:04:44;99276.42;;;7.38;85.45
35848;BME280;22332;51.954;20.118;2023-12-20T02:07:51;99266.33;;;7.33;85.44
35848;BME280;22332;51.954;20.118;2023-12-20T02:10:57;99270.32;;;7.34;85.44
35848;BME280;22332;51.954;20.118;2023-12-20T02:14:03;99280.30;;;7.36;85.43
35848;BME280;22332;51.954;20.118;2023-12-20T02:17:09;99275.30;;;7.40;85.30
35848;BME280;22332;51.954;20.118;2023-12-20T02:20:15;99263.90;;;7.41;85.42
35848;BME280;22332;51.954;20.118;2023-12-20T02:23:20;99257.73;;;7.41;85.40
35848;BME280;22332;51.954;20.118;2023-12-20T02:26:27;99255.96;;;7.41;85.61
35848;BME280;22332;51.954;20.118;2023-12-20T02:29:33;99260.71;;;7.42;85.79
35848;BME280;22332;51.954;20.118;2023-12-20T02:32:39;99247.34;;;7.45;85.68
35848;BME280;22332;51.954;20.118;2023-12-20T02:35:45;99252.25;;;7.46;85.83
35848;BME280;22332;51.954;20.118;2023-12-20T02:38:52;99242.39;;;7.45;85.74
35848;BME280;22332;51.954;20.118;2023-12-20T02:41:57;99244.88;;;7.45;85.67
35848;BME280;22332;51.954;20.118;2023-12-20T02:45:05;99243.85;;;7.43;85.91
35848;BME280;22332;51.954;20.118;2023-12-20T02:48:11;99247.58;;;7.40;86.01
35848;BME280;22332;51.954;20.118;2023-12-20T02:51:16;99239.81;;;7.39;86.11
35848;BME280;22332;51.954;20.118;2023-12-20T02:54:22;99237.41;;;7.40;86.11
35848;BME280;22332;51.954;20.118;2023-12-20T02:57:28;99242.25;;;7.41;85.96
35848;BME280;22332;51.954;20.118;2023-12-20T03:00:34;99236.45;;;7.41;85.91
35848;BME280;22332;51.954;20.118;2023-12-20T03:03:39;99237.70;;;7.39;86.06
35848;BME280;22332;51.954;20.118;2023-12-20T03:06:45;99239.30;;;7.36;85.94
35848;BME280;22332;51.954;20.118;2023-12-20T03:09:51;99231.41;;;7.33;85.83
35848;BME280;22332;51.954;20.118;2023-12-20T03:12:56;99225.36;;;7.32;86.11
35848;BME280;22332;51.954;20.118;2023-12-20T03:16:02;99223.56;;;7.31;86.34
35848;BME280;22332;51.954;20.118;2023-12-20T03:19:13;99231.77;;;7.32;86.35
35848;BME280;22332;51.954;20.118;2023-12-20T03:22:18;99234.13;;;7.26;86.24
35848;BME280;22332;51.954;20.118;2023-12-20T03:25:24;99230.95;;;7.22;86.53
35848;BME280;22332;51.954;20.118;2023-12-20T03:28:31;99232.05;;;7.21;86.45
35848;BME280;22332;51.954;20.118;2023-12-20T03:31:36;99233.12;;;7.20;86.66
35848;BME280;22332;51.954;20.118;2023-12-20T03:34:44;99224.72;;;7.23;86.70
35848;BME280;22332;51.954;20.118;2023-12-20T03:37:50;99217.84;;;7.24;86.33
35848;BME280;22332;51.954;20.118;2023-12-20T03:40:56;99218.13;;;7.25;86.66
35848;BME280;22332;51.954;20.118;2023-12-20T03:44:01;99213.45;;;7.25;86.79
35848;BME280;22332;51.954;20.118;2023-12-20T03:47:07;99208.83;;;7.24;86.59
35848;BME280;22332;51.954;20.118;2023-12-20T03:50:13;99216.90;;;7.25;86.67
35848;BME280;22332;51.954;20.118;2023-12-20T03:53:18;99214.48;;;7.26;87.02
35848;BME280;22332;51.954;20.118;2023-12-20T03:56:24;99218.14;;;7.27;86.99
35848;BME280;22332;51.954;20.118;2023-12-20T03:59:30;99214.06;;;7.28;86.99
35848;BME280;22332;51.954;20.118;2023-12-20T04:02:36;99214.60;;;7.28;86.93
35848;BME280;22332;51.954;20.118;2023-12-20T04:05:41;99216.79;;;7.28;86.79
35848;BME280;22332;51.954;20.118;2023-12-20T04:08:47;99216.05;;;7.26;86.87
35848;BME280;22332;51.954;20.118;2023-12-20T04:11:52;99218.39;;;7.26;87.05
35848;BME280;22332;51.954;20.118;2023-12-20T04:14:58;99219.61;;;7.29;86.99
35848;BME280;22332;51.954;20.118;2023-12-20T04:18:04;99220.30;;;7.33;87.09
35848;BME280;22332;51.954;20.118;2023-12-20T04:21:10;99218.56;;;7.36;87.00
35848;BME280;22332;51.954;20.118;2023-12-20T04:24:15;99221.13;;;7.39;87.06
35848;BME280;22332;51.954;20.118;2023-12-20T04:27:21;99216.45;;;7.38;87.00
35848;BME280;22332;51.954;20.118;2023-12-20T04:30:26;99218.02;;;7.35;87.08
35848;BME280;22332;51.954;20.118;2023-12-20T04:33:32;99215.41;;;7.31;87.16
35848;BME280;22332;51.954;20.118;2023-12-20T04:36:38;99214.29;;;7.32;87.23
35848;BME280;22332;51.954;20.118;2023-12-20T04:39:43;99214.93;;;7.34;87.21
35848;BME280;22332;51.954;20.118;2023-12-20T04:42:49;99207.30;;;7.34;87.35
35848;BME280;22332;51.954;20.118;2023-12-20T04:45:55;99203.81;;;7.34;87.13
35848;BME280;22332;51.954;20.118;2023-12-20T04:49:00;99201.15;;;7.32;87.18
35848;BME280;22332;51.954;20.118;2023-12-20T04:52:06;99194.91;;;7.31;87.20
35848;BME280;22332;51.954;20.118;2023-12-20T04:55:12;99194.70;;;7.31;87.27
35848;BME280;22332;51.954;20.118;2023-12-20T04:58:18;99190.17;;;7.29;87.31
35848;BME280;22332;51.954;20.118;2023-12-20T05:01:23;99194.94;;;7.30;87.48
35848;BME280;22332;51.954;20.118;2023-12-20T05:04:29;99198.63;;;7.32;87.35
35848;BME280;22332;51.954;20.118;2023-12-20T05:07:34;99196.23;;;7.31;87.38
35848;BME280;22332;51.954;20.118;2023-12-20T05:10:40;99196.13;;;7.29;87.10
35848;BME280;22332;51.954;20.118;2023-12-20T05:13:46;99196.33;;;7.29;87.33
35848;BME280;22332;51.954;20.118;2023-12-20T05:16:51;99195.03;;;7.27;87.34
35848;BME280;22332;51.954;20.118;2023-12-20T05:19:57;99196.77;;;7.24;87.51
35848;BME280;22332;51.954;20.118;2023-12-20T05:23:03;99200.15;;;7.24;87.75
35848;BME280;22332;51.954;20.118;2023-12-20T05:26:08;99197.14;;;7.26;87.50
35848;BME280;22332;51.954;20.118;2023-12-20T05:29:14;99196.32;;;7.27;87.50
35848;BME280;22332;51.954;20.118;2023-12-20T05:32:19;99197.45;;;7.25;87.45
35848;BME280;22332;51.954;20.118;2023-12-20T05:35:24;99198.78;;;7.22;87.61
35848;BME280;22332;51.954;20.118;2023-12-20T05:38:30;99193.70;;;7.22;87.51
35848;BME280;22332;51.954;20.118;2023-12-20T05:41:36;99196.52;;;7.17;87.87
35848;BME280;22332;51.954;20.118;2023-12-20T05:44:41;99202.25;;;7.14;87.61
35848;BME280;22332;51.954;20.118;2023-12-20T05:47:47;99200.34;;;7.16;87.73
35848;BME280;22332;51.954;20.118;2023-12-20T05:50:53;99198.10;;;7.20;87.83
35848;BME280;22332;51.954;20.118;2023-12-20T05:53:58;99199.59;;;7.24;87.62
35848;BME280;22332;51.954;20.118;2023-12-20T05:57:04;99193.33;;;7.27;87.91
35848;BME280;22332;51.954;20.118;2023-12-20T06:00:13;99192.04;;;7.26;87.61
35848;BME280;22332;51.954;20.118;2023-12-20T06:03:18;99191.73;;;7.24;87.70
35848;BME280;22332;51.954;20.118;2023-12-20T06:06:24;99193.88;;;7.23;87.66
35848;BME280;22332;51.954;20.118;2023-12-20T06:09:29;99193.55;;;7.25;87.80
35848;BME280;22332;51.954;20.118;2023-12-20T06:12:35;99193.61;;;7.28;87.86
35848;BME280;22332;51.954;20.118;2023-12-20T06:15:41;99195.04;;;7.29;87.86
35848;BME280;22332;51.954;20.118;2023-12-20T06:18:46;99195.44;;;7.32;87.78
35848;BME280;22332;51.954;20.118;2023-12-20T06:21:52;99189.34;;;7.31;87.93
35848;BME280;22332;51.954;20.118;2023-12-20T06:24:58;99194.37;;;7.29;87.79
35848;BME280;22332;51.954;20.118;2023-12-20T06:28:04;99192.45;;;7.23;87.96
35848;BME280;22332;51.954;20.118;2023-12-20T06:31:09;99190.86;;;7.17;87.84
35848;BME280;22332;51.954;20.118;2023-12-20T06:34:15;99189.45;;;7.15;88.06
35848;BME280;22332;51.954;20.118;2023-12-20T06:37:20;99189.64;;;7.18;87.99
35848;BME280;22332;51.954;20.118;2023-12-20T06:40:27;99185.98;;;7.21;88.01
35848;BME280;22332;51.954;20.118;2023-12-20T06:43:33;99185.18;;;7.20;88.26
35848;BME280;22332;51.954;20.118;2023-12-20T06:46:38;99189.74;;;7.17;88.13
35848;BME280;22332;51.954;20.118;2023-12-20T06:49:44;99189.42;;;7.15;87.91
35848;BME280;22332;51.954;20.118;2023-12-20T06:52:49;99186.61;;;7.12;87.88
35848;BME280;22332;51.954;20.118;2023-12-20T06:55:56;99187.80;;;7.06;87.99
35848;BME280;22332;51.954;20.118;2023-12-20T06:59:01;99186.23;;;7.04;88.11
35848;BME280;22332;51.954;20.118;2023-12-20T07:02:07;99196.27;;;7.06;88.25
35848;BME280;22332;51.954;20.118;2023-12-20T07:05:13;99198.71;;;7.11;88.24
35848;BME280;22332;51.954;20.118;2023-12-20T07:08:21;99192.20;;;7.12;88.11
35848;BME280;22332;51.954;20.118;2023-12-20T07:11:29;99192.77;;;7.12;88.27
35848;BME280;22332;51.954;20.118;2023-12-20T07:14:37;99190.26;;;7.11;88.18
35848;BME280;22332;51.954;20.118;2023-12-20T07:17:42;99191.25;;;7.11;88.32
35848;BME280;22332;51.954;20.118;2023-12-20T07:20:48;99193.55;;;7.13;88.14
35848;BME280;22332;51.954;20.118;2023-12-20T07:23:53;99196.86;;;7.17;88.26
35848;BME280;22332;51.954;20.118;2023-12-20T07:27:00;99197.25;;;7.20;88.21
35848;BME280;22332;51.954;20.118;2023-12-20T07:30:08;99197.85;;;7.21;88.12
35848;BME280;22332;51.954;20.118;2023-12-20T07:33:13;99202.61;;;7.21;88.25
35848;BME280;22332;51.954;20.118;2023-12-20T07:36:20;99199.04;;;7.20;88.20
35848;BME280;22332;51.954;20.118;2023-12-20T07:39:26;99202.45;;;7.17;88.23
35848;BME280;22332;51.954;20.118;2023-12-20T07:42:32;99200.26;;;7.15;88.06
35848;BME280;22332;51.954;20.118;2023-12-20T07:45:40;99204.84;;;7.17;88.37
35848;BME280;22332;51.954;20.118;2023-12-20T07:48:46;99210.36;;;7.21;88.33
35848;BME280;22332;51.954;20.118;2023-12-20T07:51:51;99206.93;;;7.27;88.41
35848;BME280;22332;51.954;20.118;2023-12-20T07:54:57;99200.30;;;7.30;88.36
35848;BME280;22332;51.954;20.118;2023-12-20T07:58:03;99199.95;;;7.30;88.42
35848;BME280;22332;51.954;20.118;2023-12-20T08:01:10;99201.46;;;7.27;88.17
35848;BME280;22332;51.954;20.118;2023-12-20T08:04:15;99200.63;;;7.25;88.44
35848;BME280;22332;51.954;20.118;2023-12-20T08:07:21;99198.73;;;7.26;88.48
35848;BME280;22332;51.954;20.118;2023-12-20T08:10:26;99195.23;;;7.29;88.62
35848;BME280;22332;51.954;20.118;2023-12-20T08:13:33;99196.68;;;7.34;88.38
35848;BME280;22332;51.954;20.118;2023-12-20T08:16:39;99197.66;;;7.35;88.28
35848;BME280;22332;51.954;20.118;2023-12-20T08:19:45;99199.64;;;7.36;88.54
35848;BME280;22332;51.954;20.118;2023-12-20T08:22:50;99199.05;;;7.37;88.35
35848;BME280;22332;51.954;20.118;2023-12-20T08:25:56;99196.58;;;7.35;88.42
35848;BME280;22332;51.954;20.118;2023-12-20T08:29:01;99195.61;;;7.32;88.23
35848;BME280;22332;51.954;20.118;2023-12-20T08:32:07;99193.03;;;7.32;88.30
35848;BME280;22332;51.954;20.118;2023-12-20T08:35:13;99193.75;;;7.35;88.39
35848;BME280;22332;51.954;20.118;2023-12-20T08:38:18;99188.85;;;7.40;88.55
35848;BME280;22332;51.954;20.118;2023-12-20T08:41:24;99192.21;;;7.41;88.48
35848;BME280;22332;51.954;20.118;2023-12-20T08:44:30;99191.57;;;7.39;88.56
35848;BME280;22332;51.954;20.118;2023-12-20T08:47:35;99192.39;;;7.38;88.34
35848;BME280;22332;51.954;20.118;2023-12-20T08:50:41;99194.68;;;7.38;88.51
35848;BME280;22332;51.954;20.118;2023-12-20T08:53:47;99195.16;;;7.38;88.64
35848;BME280;22332;51.954;20.118;2023-12-20T08:56:53;99197.11;;;7.40;88.70
35848;BME280;22332;51.954;20.118;2023-12-20T08:59:59;99197.31;;;7.42;88.74
35848;BME280;22332;51.954;20.118;2023-12-20T09:03:05;99194.12;;;7.45;88.63
35848;BME280;22332;51.954;20.118;2023-12-20T09:06:11;99191.77;;;7.47;88.63
35848;BME280;22332;51.954;20.118;2023-12-20T09:09:16;99190.91;;;7.47;88.30
35848;BME280;22332;51.954;20.118;2023-12-20T09:12:22;99185.85;;;7.44;88.44
35848;BME280;22332;51.954;20.118;2023-12-20T09:15:28;99181.08;;;7.44;88.71
35848;BME280;22332;51.954;20.118;2023-12-20T09:18:34;99177.54;;;7.46;88.63
35848;BME280;22332;51.954;20.118;2023-12-20T09:21:40;99180.52;;;7.52;88.54
35848;BME280;22332;51.954;20.118;2023-12-20T09:24:45;99174.42;;;7.58;88.84
35848;BME280;22332;51.954;20.118;2023-12-20T09:27:51;99168.06;;;7.61;88.45
35848;BME280;22332;51.954;20.118;2023-12-20T09:30:56;99168.00;;;7.63;88.68
35848;BME280;22332;51.954;20.118;2023-12-20T09:34:02;99164.89;;;7.64;88.62
35848;BME280;22332;51.954;20.118;2023-12-20T09:37:08;99162.63;;;7.62;88.72
35848;BME280;22332;51.954;20.118;2023-12-20T09:40:14;99163.39;;;7.60;88.65
35848;BME280;22332;51.954;20.118;2023-12-20T09:43:25;99160.73;;;7.61;88.82
35848;BME280;22332;51.954;20.118;2023-12-20T09:46:34;99164.63;;;7.61;88.55
35848;BME280;22332;51.954;20.118;2023-12-20T09:49:41;99160.80;;;7.61;88.62
35848;BME280;22332;51.954;20.118;2023-12-20T09:52:51;99159.44;;;7.59;88.58
35848;BME280;22332;51.954;20.118;2023-12-20T09:55:59;99157.66;;;7.57;88.61
35848;BME280;22332;51.954;20.118;2023-12-20T09:59:05;99148.37;;;7.56;88.74
35848;BME280;22332;51.954;20.118;2023-12-20T10:02:14;99143.28;;;7.56;88.76
35848;BME280;22332;51.954;20.118;2023-12-20T10:05:26;99141.91;;;7.57;88.79
35848;BME280;22332;51.954;20.118;2023-12-20T10:08:31;99145.63;;;7.59;88.77
35848;BME280;22332;51.954;20.118;2023-12-20T10:11:40;99143.44;;;7.61;88.70
35848;BME280;22332;51.954;20.118;2023-12-20T10:14:46;99136.58;;;7.62;88.82
35848;BME280;22332;51.954;20.118;2023-12-20T10:17:52;99133.95;;;7.62;88.40
35848;BME280;22332;51.954;20.118;2023-12-20T10:20:59;99129.51;;;7.61;88.62
35848;BME280;22332;51.954;20.118;2023-12-20T10:24:06;99126.64;;;7.57;88.56
35848;BME280;22332;51.954;20.118;2023-12-20T10:27:11;99129.05;;;7.55;88.61
35848;BME280;22332;51.954;20.118;2023-12-20T10:30:17;99129.09;;;7.56;88.51
35848;BME280;22332;51.954;20.118;2023-12-20T10:33:26;99126.20;;;7.54;88.91
35848;BME280;22332;51.954;20.118;2023-12-20T10:36:33;99126.30;;;7.54;88.36
35848;BME280;22332;51.954;20.118;2023-12-20T10:39:41;99115.58;;;7.50;88.20
35848;BME280;22332;51.954;20.118;2023-12-20T10:42:48;99112.74;;;7.40;88.15
35848;BME280;22332;51.954;20.118;2023-12-20T10:45:56;99119.34;;;7.29;88.37
35848;BME280;22332;51.954;20.118;2023-12-20T10:49:03;99119.02;;;7.29;88.57
35848;BME280;22332;51.954;20.118;2023-12-20T10:52:10;99114.31;;;7.32;88.60
35848;BME280;22332;51.954;20.118;2023-12-20T10:55:16;99113.98;;;7.38;88.72
35848;BME280;22332;51.954;20.118;2023-12-20T10:58:23;99114.17;;;7.40;88.64
35848;BME280;22332;51.954;20.118;2023-12-20T11:01:30;99110.19;;;7.39;88.73
35848;BME280;22332;51.954;20.118;2023-12-20T11:04:44;99107.82;;;7.41;88.59
35848;BME280;22332;51.954;20.118;2023-12-20T11:07:55;99105.55;;;7.38;88.33
35848;BME280;22332;51.954;20.118;2023-12-20T11:11:09;99105.77;;;7.25;88.27
35848;BME280;22332;51.954;20.118;2023-12-20T11:14:22;99101.59;;;7.18;88.17
35848;BME280;22332;51.954;20.118;2023-12-20T11:17:29;99101.86;;;7.17;88.36
35848;BME280;22332;51.954;20.118;2023-12-20T11:20:38;99101.55;;;7.18;88.45
35848;BME280;22332;51.954;20.118;2023-12-20T11:23:44;99096.14;;;7.16;87.51
35848;BME280;22332;51.954;20.118;2023-12-20T11:26:50;99096.86;;;7.13;87.82
35848;BME280;22332;51.954;20.118;2023-12-20T11:30:02;99092.98;;;7.16;87.88
35848;BME280;22332;51.954;20.118;2023-12-20T11:33:10;99089.94;;;7.18;87.44
35848;BME280;22332;51.954;20.118;2023-12-20T11:36:18;99088.73;;;7.21;87.70
35848;BME280;22332;51.954;20.118;2023-12-20T11:39:26;99084.84;;;7.24;87.39
35848;BME280;22332;51.954;20.118;2023-12-20T11:42:39;99078.26;;;7.28;87.44
35848;BME280;22332;51.954;20.118;2023-12-20T11:45:50;99078.16;;;7.31;87.43
35848;BME280;22332;51.954;20.118;2023-12-20T11:48:56;99075.60;;;7.30;87.18
35848;BME280;22332;51.954;20.118;2023-12-20T11:52:02;99071.44;;;7.24;87.44
35848;BME280;22332;51.954;20.118;2023-12-20T11:55:08;99070.36;;;7.19;87.42
35848;BME280;22332;51.954;20.118;2023-12-20T11:58:13;99073.44;;;7.18;87.50
35848;BME280;22332;51.954;20.118;2023-12-20T12:01:22;99074.08;;;7.19;87.48
35848;BME280;22332;51.954;20.118;2023-12-20T12:04:27;99070.51;;;7.21;87.82
35848;BME280;22332;51.954;20.118;2023-12-20T12:07:33;99070.97;;;7.23;87.60
35848;BME280;22332;51.954;20.118;2023-12-20T12:10:39;99064.61;;;7.26;87.75
35848;BME280;22332;51.954;20.118;2023-12-20T12:13:44;99064.23;;;7.25;87.52
35848;BME280;22332;51.954;20.118;2023-12-20T12:16:50;99055.64;;;7.22;87.80
35848;BME280;22332;51.954;20.118;2023-12-20T12:20:05;99053.79;;;7.22;87.67
35848;BME280;22332;51.954;20.118;2023-12-20T12:23:12;99059.71;;;7.21;87.80
35848;BME280;22332;51.954;20.118;2023-12-20T12:26:17;99053.20;;;7.22;87.92
35848;BME280;22332;51.954;20.118;2023-12-20T12:29:23;99059.69;;;7.30;87.76
35848;BME280;22332;51.954;20.118;2023-12-20T12:32:29;99059.26;;;7.34;87.70
35848;BME280;22332;51.954;20.118;2023-12-20T12:35:36;99054.16;;;7.35;87.65
35848;BME280;22332;51.954;20.118;2023-12-20T12:38:42;99050.34;;;7.34;87.53
35848;BME280;22332;51.954;20.118;2023-12-20T12:41:48;99051.17;;;7.32;87.40
35848;BME280;22332;51.954;20.118;2023-12-20T12:44:54;99046.38;;;7.30;87.49
35848;BME280;22332;51.954;20.118;2023-12-20T12:47:59;99038.44;;;7.23;87.04
35848;BME280;22332;51.954;20.118;2023-12-20T12:51:05;99038.73;;;7.20;87.37
35848;BME280;22332;51.954;20.118;2023-12-20T12:54:12;99034.92;;;7.23;87.56
35848;BME280;22332;51.954;20.118;2023-12-20T12:57:20;99034.28;;;7.29;87.58
35848;BME280;22332;51.954;20.118;2023-12-20T13:00:26;99030.67;;;7.33;87.38
35848;BME280;22332;51.954;20.118;2023-12-20T13:03:32;99025.09;;;7.31;87.20
35848;BME280;22332;51.954;20.118;2023-12-20T13:06:38;99025.62;;;7.27;87.29
35848;BME280;22332;51.954;20.118;2023-12-20T13:09:45;99028.71;;;7.20;86.75
35848;BME280;22332;51.954;20.118;2023-12-20T13:12:51;99021.20;;;7.11;86.83
35848;BME280;22332;51.954;20.118;2023-12-20T13:15:56;99024.40;;;7.05;86.82
35848;BME280;22332;51.954;20.118;2023-12-20T13:19:02;99021.42;;;7.01;86.14
35848;BME280;22332;51.954;20.118;2023-12-20T13:22:07;99016.77;;;7.00;86.18
35848;BME280;22332;51.954;20.118;2023-12-20T13:25:13;99022.70;;;6.97;85.54
35848;BME280;22332;51.954;20.118;2023-12-20T13:28:20;99021.16;;;6.97;85.71
35848;BME280;22332;51.954;20.118;2023-12-20T13:31:26;99012.86;;;6.97;85.62
35848;BME280;22332;51.954;20.118;2023-12-20T13:34:31;99011.20;;;6.98;85.43
35848;BME280;22332;51.954;20.118;2023-12-20T13:37:37;99020.23;;;6.94;85.46
35848;BME280;22332;51.954;20.118;2023-12-20T13:40:44;99022.51;;;6.84;84.61
35848;BME280;22332;51.954;20.118;2023-12-20T13:43:49;99027.71;;;6.70;84.37
35848;BME280;22332;51.954;20.118;2023-12-20T13:46:55;99024.77;;;6.59;84.85
35848;BME280;22332;51.954;20.118;2023-12-20T13:50:00;99028.85;;;6.57;85.42
35848;BME280;22332;51.954;20.118;2023-12-20T13:53:06;99020.16;;;6.57;85.27
35848;BME280;22332;51.954;20.118;2023-12-20T13:56:12;99015.91;;;6.59;84.89
35848;BME280;22332;51.954;20.118;2023-12-20T13:59:17;99019.06;;;6.56;84.71
35848;BME280;22332;51.954;20.118;2023-12-20T14:02:23;99019.57;;;6.56;84.66
35848;BME280;22332;51.954;20.118;2023-12-20T14:05:29;99017.62;;;6.56;85.03
35848;BME280;22332;51.954;20.118;2023-12-20T14:08:34;99010.09;;;6.57;84.75
35848;BME280;22332;51.954;20.118;2023-12-20T14:11:41;99008.98;;;6.56;84.89
35848;BME280;22332;51.954;20.118;2023-12-20T14:14:47;99014.39;;;6.53;84.80
35848;BME280;22332;51.954;20.118;2023-12-20T14:17:52;99007.40;;;6.47;84.77
35848;BME280;22332;51.954;20.118;2023-12-20T14:20:59;99014.31;;;6.44;84.64
35848;BME280;22332;51.954;20.118;2023-12-20T14:24:05;99012.48;;;6.42;84.46
35848;BME280;22332;51.954;20.118;2023-12-20T14:27:10;99016.52;;;6.43;84.37
35848;BME280;22332;51.954;20.118;2023-12-20T14:30:16;99008.32;;;6.44;84.25
35848;BME280;22332;51.954;20.118;2023-12-20T14:33:22;99009.08;;;6.43;84.10
35848;BME280;22332;51.954;20.118;2023-12-20T14:36:28;99012.63;;;6.41;84.42
35848;BME280;22332;51.954;20.118;2023-12-20T14:39:35;99014.27;;;6.39;84.31
35848;BME280;22332;51.954;20.118;2023-12-20T14:42:44;99008.52;;;6.35;84.15
35848;BME280;22332;51.954;20.118;2023-12-20T14:45:54;99010.89;;;6.32;84.33
35848;BME280;22332;51.954;20.118;2023-12-20T14:49:02;99013.59;;;6.30;84.27
35848;BME280;22332;51.954;20.118;2023-12-20T14:52:09;99010.84;;;6.25;84.14
35848;BME280;22332;51.954;20.118;2023-12-20T14:55:16;99011.58;;;6.27;83.97
35848;BME280;22332;51.954;20.118;2023-12-20T14:58:25;99013.07;;;6.30;84.21
35848;BME280;22332;51.954;20.118;2023-12-20T15:01:31;99014.69;;;6.35;83.94
35848;BME280;22332;51.954;20.118;2023-12-20T15:04:36;99010.54;;;6.36;84.01
35848;BME280;22332;51.954;20.118;2023-12-20T15:07:42;99002.30;;;6.30;83.95
35848;BME280;22332;51.954;20.118;2023-12-20T15:10:48;99004.27;;;6.26;83.98
35848;BME280;22332;51.954;20.118;2023-12-20T15:13:55;99000.23;;;6.22;84.15
35848;BME280;22332;51.954;20.118;2023-12-20T15:17:02;98992.12;;;6.17;84.25
35848;BME280;22332;51.954;20.118;2023-12-20T15:20:08;98990.64;;;6.14;84.02
35848;BME280;22332;51.954;20.118;2023-12-20T15:23:15;98994.26;;;6.10;84.03
35848;BME280;22332;51.954;20.118;2023-12-20T15:26:21;98991.96;;;6.08;83.83
35848;BME280;22332;51.954;20.118;2023-12-20T15:29:27;98989.96;;;6.10;83.78
35848;BME280;22332;51.954;20.118;2023-12-20T15:32:32;98992.00;;;6.08;83.68
35848;BME280;22332;51.954;20.118;2023-12-20T15:35:40;98986.50;;;6.03;83.88
35848;BME280;22332;51.954;20.118;2023-12-20T15:38:46;98980.95;;;5.98;83.84
35848;BME280;22332;51.954;20.118;2023-12-20T15:41:52;98973.06;;;5.92;83.73
35848;BME280;22332;51.954;20.118;2023-12-20T15:44:58;98960.06;;;5.79;84.03
35848;BME280;22332;51.954;20.118;2023-12-20T15:48:05;98958.95;;;5.67;84.06
35848;BME280;22332;51.954;20.118;2023-12-20T15:51:11;98957.71;;;5.60;84.29
35848;BME280;22332;51.954;20.118;2023-12-20T15:54:17;98950.30;;;5.60;84.30
35848;BME280;22332;51.954;20.118;2023-12-20T15:57:23;98951.69;;;5.61;84.32
35848;BME280;22332;51.954;20.118;2023-12-20T16:00:28;98945.56;;;5.56;84.44
35848;BME280;22332;51.954;20.118;2023-12-20T16:03:35;98942.30;;;5.52;84.25
35848;BME280;22332;51.954;20.118;2023-12-20T16:06:40;98945.29;;;5.47;84.40
35848;BME280;22332;51.954;20.118;2023-12-20T16:09:46;98946.92;;;5.41;84.23
35848;BME280;22332;51.954;20.118;2023-12-20T16:12:51;98943.13;;;5.35;84.17
35848;BME280;22332;51.954;20.118;2023-12-20T16:15:57;98947.51;;;5.28;84.10
35848;BME280;22332;51.954;20.118;2023-12-20T16:19:02;98943.61;;;5.23;84.43
35848;BME280;22332;51.954;20.118;2023-12-20T16:22:08;98942.15;;;5.21;84.47
35848;BME280;22332;51.954;20.118;2023-12-20T16:25:14;98953.40;;;5.22;84.28